Time;durP1;ratioP1;P1;durP2;ratioP2;P2;SDS_P1;SDS_P2;PMS_P1;PMS_P2;Temp;Humidity;BMP_temperature;BMP_pressure;BME280_temperature;BME280_humidity;BME280_pressure;Samples;Min_cycle;Max_cycle;Signal;HPM_P1;HPM_P2
2024/02/08 00:01:08;0.00;0.00;0.62;0.00;0.00;0.62;4.80;3.40;;;21.70;26.10;;;;;;2257684;61;20414;-65
2024/02/08 00:03:52;0.00;0.00;0.62;0.00;0.00;0.62;3.60;3.10;;;21.70;26.10;;;;;;2260016;61;20979;-64
2024/02/08 00:06:37;0.00;0.00;0.62;0.00;0.00;0.62;4.03;3.30;;;21.70;26.10;;;;;;2260472;61;20459;-66
2024/02/08 00:09:21;0.00;0.00;0.62;0.00;0.00;0.62;4.07;3.20;;;21.60;26.00;;;;;;2260209;61;20388;-66
2024/02/08 00:12:06;0.00;0.00;0.62;0.00;0.00;0.62;3.77;3.00;;;21.70;26.10;;;;;;2260338;61;20970;-63
2024/02/08 00:14:52;0.00;0.00;0.62;0.00;0.00;0.62;5.40;3.33;;;21.70;26.10;;;;;;2259910;61;20665;-65
2024/02/08 00:17:37;0.00;0.00;0.62;0.00;0.00;0.62;4.17;3.57;;;21.70;26.10;;;;;;2256962;61;20384;-63
2024/02/08 00:20:21;0.00;0.00;0.62;0.00;0.00;0.62;4.53;3.40;;;21.60;26.00;;;;;;2260461;61;20419;-65
2024/02/08 00:23:08;0.00;0.00;0.62;0.00;0.00;0.62;4.20;3.10;;;21.60;26.00;;;;;;2259712;61;20381;-64
2024/02/08 00:25:55;0.00;0.00;0.62;0.00;0.00;0.62;4.17;3.60;;;21.60;26.00;;;;;;2260284;61;20387;-65
2024/02/08 00:28:39;0.00;0.00;0.62;0.00;0.00;0.62;3.50;2.97;;;21.60;26.00;;;;;;2260307;61;20404;-65
2024/02/08 00:31:26;0.00;0.00;0.62;0.00;0.00;0.62;3.70;2.87;;;21.60;26.00;;;;;;2256841;61;20358;-65
2024/02/08 00:34:11;0.00;0.00;0.62;0.00;0.00;0.62;3.60;3.00;;;21.60;26.00;;;;;;2256193;61;20346;-66
2024/02/08 00:36:55;0.00;0.00;0.62;0.00;0.00;0.62;3.97;3.10;;;21.60;26.00;;;;;;2256165;61;21012;-66
2024/02/08 00:39:43;0.00;0.00;0.62;0.00;0.00;0.62;4.00;3.17;;;21.60;26.00;;;;;;2775264;45;20412;-65
2024/02/08 00:42:27;0.00;0.00;0.62;0.00;0.00;0.62;4.47;3.57;;;21.60;26.00;;;;;;2257048;61;20979;-63
2024/02/08 00:45:15;0.00;0.00;0.62;0.00;0.00;0.62;3.80;3.07;;;21.60;26.00;;;;;;2257636;61;20378;-65
2024/02/08 00:48:04;0.00;0.00;0.62;0.00;0.00;0.62;4.70;3.40;;;21.60;26.00;;;;;;2256501;61;20445;-63
2024/02/08 00:50:49;0.00;0.00;0.62;0.00;0.00;0.62;4.63;3.27;;;21.60;26.00;;;;;;2257281;61;20906;-64
2024/02/08 00:53:33;0.00;0.00;0.62;0.00;0.00;0.62;4.87;3.03;;;21.60;26.00;;;;;;2256231;61;20820;-65
2024/02/08 00:56:19;0.00;0.00;0.62;0.00;0.00;0.62;3.53;2.90;;;21.60;26.00;;;;;;2258411;61;20441;-66
2024/02/08 00:59:03;0.00;0.00;0.62;0.00;0.00;0.62;5.67;4.30;;;21.60;26.00;;;;;;2259536;61;20399;-65
2024/02/08 01:01:48;0.00;0.00;0.62;0.00;0.00;0.62;4.50;3.23;;;21.60;26.00;;;;;;2503767;53;20420;-65
2024/02/08 01:04:34;0.00;0.00;0.62;0.00;0.00;0.62;3.50;2.80;;;21.60;26.00;;;;;;2259801;61;20827;-65
2024/02/08 01:07:19;0.00;0.00;0.62;0.00;0.00;0.62;3.90;3.27;;;21.50;25.90;;;;;;2261131;61;21039;-65
2024/02/08 01:10:07;0.00;0.00;0.62;0.00;0.00;0.62;7.07;3.53;;;21.50;26.10;;;;;;2264510;61;20380;-67
2024/02/08 01:12:53;0.00;0.00;0.62;0.00;0.00;0.62;4.33;3.23;;;21.50;25.90;;;;;;2262971;61;20900;-65
2024/02/08 01:15:38;0.00;0.00;0.62;0.00;0.00;0.62;4.87;3.73;;;21.50;25.90;;;;;;2259298;61;20439;-65
2024/02/08 01:18:22;0.00;0.00;0.62;0.00;0.00;0.62;4.80;3.20;;;21.50;25.90;;;;;;2257857;61;20390;-65
2024/02/08 01:21:11;0.00;0.00;0.62;0.00;0.00;0.62;3.77;3.37;;;21.50;25.90;;;;;;2257660;61;20773;-65
2024/02/08 01:23:56;0.00;0.00;0.62;0.00;0.00;0.62;3.50;3.20;;;21.50;25.90;;;;;;2493779;53;20406;-66
2024/02/08 01:26:41;0.00;0.00;0.62;0.00;0.00;0.62;3.47;3.17;;;21.50;25.90;;;;;;2257515;61;20460;-65
2024/02/08 01:29:26;0.00;0.00;0.62;0.00;0.00;0.62;4.20;3.00;;;21.50;25.90;;;;;;2256754;61;20452;-65
2024/02/08 01:32:15;0.00;0.00;0.62;0.00;0.00;0.62;4.17;3.27;;;21.50;25.90;;;;;;2257204;61;20412;-65
2024/02/08 01:34:59;0.00;0.00;0.62;0.00;0.00;0.62;3.57;3.03;;;21.50;25.90;;;;;;2256846;61;20857;-65
2024/02/08 01:37:45;0.00;0.00;0.62;0.00;0.00;0.62;4.60;3.70;;;21.50;25.90;;;;;;2259285;61;20385;-65
2024/02/08 01:40:30;0.00;0.00;0.62;0.00;0.00;0.62;4.03;3.03;;;21.50;25.90;;;;;;2260741;61;20369;-69
2024/02/08 01:43:15;0.00;0.00;0.62;0.00;0.00;0.62;3.70;3.13;;;21.50;25.90;;;;;;2260687;61;20473;-66
2024/02/08 01:45:59;0.00;0.00;0.62;0.00;0.00;0.62;4.20;3.13;;;21.50;25.90;;;;;;2256296;61;20937;-65
2024/02/08 01:48:44;0.00;0.00;0.62;0.00;0.00;0.62;3.63;3.00;;;21.40;25.80;;;;;;2256891;61;20350;-70
2024/02/08 01:51:30;0.00;0.00;0.62;0.00;0.00;0.62;4.73;3.77;;;21.40;25.80;;;;;;2253965;61;20357;-65
2024/02/08 01:54:19;0.00;0.00;0.62;0.00;0.00;0.62;4.23;3.33;;;21.40;25.80;;;;;;2260598;61;20392;-65
2024/02/08 01:57:04;0.00;0.00;0.62;0.00;0.00;0.62;4.07;3.27;;;21.50;26.40;;;;;;2260732;61;20393;-64
2024/02/08 01:59:52;0.00;0.00;0.62;0.00;0.00;0.62;4.90;3.33;;;21.40;25.80;;;;;;2374842;53;20369;-65
2024/02/08 02:02:40;0.00;0.00;0.62;0.00;0.00;0.62;5.83;3.47;;;21.40;25.80;;;;;;2257437;61;20459;-64
2024/02/08 02:05:25;0.00;0.00;0.62;0.00;0.00;0.62;4.07;3.30;;;21.40;25.80;;;;;;2257601;61;20361;-65
2024/02/08 02:08:11;0.00;0.00;0.62;0.00;0.00;0.62;4.90;3.10;;;21.40;25.80;;;;;;2256292;61;20374;-64
2024/02/08 02:11:09;0.00;0.00;0.62;0.00;0.00;0.62;3.70;3.10;;;21.40;25.80;;;;;;2256729;61;20365;-66
2024/02/08 02:13:55;0.00;0.00;0.62;0.00;0.00;0.62;4.80;3.30;;;21.40;25.80;;;;;;2257328;61;20373;-67
2024/02/08 02:16:40;0.00;0.00;0.62;0.00;0.00;0.62;3.90;3.50;;;21.40;25.80;;;;;;2260373;61;20859;-65
2024/02/08 02:19:25;0.00;0.00;0.62;0.00;0.00;0.62;3.67;3.13;;;21.40;25.80;;;;;;2260655;61;20376;-65
2024/02/08 02:22:12;0.00;0.00;0.62;0.00;0.00;0.62;5.13;3.57;;;21.40;25.80;;;;;;2257320;61;20404;-64
2024/02/08 02:24:57;0.00;0.00;0.62;0.00;0.00;0.62;3.57;2.47;;;21.40;25.80;;;;;;2256372;61;20369;-65
2024/02/08 02:27:42;0.00;0.00;0.62;0.00;0.00;0.62;3.70;3.17;;;21.40;25.80;;;;;;2256782;61;20397;-65
2024/02/08 02:30:28;0.00;0.00;0.62;0.00;0.00;0.62;5.93;2.97;;;21.40;25.80;;;;;;2537204;45;20365;-64
2024/02/08 02:33:14;0.00;0.00;0.62;0.00;0.00;0.62;3.77;3.37;;;21.40;25.80;;;;;;2256791;61;20909;-66
2024/02/08 02:36:00;0.00;0.00;0.62;0.00;0.00;0.62;4.40;3.03;;;21.30;25.70;;;;;;2257076;61;20388;-66
2024/02/08 02:38:46;0.00;0.00;0.62;0.00;0.00;0.62;3.87;3.10;;;21.40;25.80;;;;;;2257113;61;20365;-63
2024/02/08 02:41:33;0.00;0.00;0.62;0.00;0.00;0.62;4.10;3.03;;;21.30;25.70;;;;;;2260853;61;20868;-65
2024/02/08 02:44:19;0.00;0.00;0.62;0.00;0.00;0.62;4.07;3.10;;;21.30;25.70;;;;;;2256689;61;20441;-65
2024/02/08 02:47:04;0.00;0.00;0.62;0.00;0.00;0.62;4.13;2.90;;;21.30;25.70;;;;;;2260542;61;20435;-66
2024/02/08 02:49:48;0.00;0.00;0.62;0.00;0.00;0.62;3.63;2.90;;;21.40;25.80;;;;;;2260625;61;20408;-65
2024/02/08 02:52:34;0.00;0.00;0.62;0.00;0.00;0.62;4.97;2.77;;;21.30;25.70;;;;;;2256385;61;20357;-67
2024/02/08 02:55:22;0.00;0.00;0.62;0.00;0.00;0.62;4.87;2.97;;;21.30;25.70;;;;;;2256432;61;20997;-64
2024/02/08 02:58:07;0.00;0.00;0.62;0.00;0.00;0.62;4.40;3.17;;;21.30;25.70;;;;;;2255946;61;20374;-67
2024/02/08 03:01:05;0.00;0.00;0.62;0.00;0.00;0.62;4.10;2.90;;;21.30;25.70;;;;;;2256604;61;20761;-65
2024/02/08 03:03:49;0.00;0.00;0.62;0.00;0.00;0.62;3.30;2.67;;;21.30;25.70;;;;;;2255893;61;20393;-65
2024/02/08 03:06:37;0.00;0.00;0.62;0.00;0.00;0.62;4.27;3.33;;;21.30;25.70;;;;;;2259056;61;20380;-65
2024/02/08 03:09:27;0.00;0.00;0.62;0.00;0.00;0.62;3.40;2.90;;;21.30;25.70;;;;;;2260501;61;20360;-66
2024/02/08 03:12:13;0.00;0.00;0.62;0.00;0.00;0.62;4.60;2.87;;;21.30;25.70;;;;;;2260504;61;20768;-65
2024/02/08 03:15:00;0.00;0.00;0.62;0.00;0.00;0.62;3.70;2.93;;;21.30;25.70;;;;;;2496792;53;20369;-69
2024/02/08 03:17:46;0.00;0.00;0.62;0.00;0.00;0.62;4.03;2.67;;;21.30;25.70;;;;;;2257380;61;20752;-66
2024/02/08 03:20:31;0.00;0.00;0.62;0.00;0.00;0.62;3.80;2.47;;;21.30;25.70;;;;;;2258660;61;20789;-69
2024/02/08 03:23:15;0.00;0.00;0.62;0.00;0.00;0.62;3.57;2.70;;;21.30;25.70;;;;;;2256104;61;20393;-67
2024/02/08 03:26:00;0.00;0.00;0.62;0.00;0.00;0.62;3.87;3.00;;;21.30;25.70;;;;;;2256214;61;20432;-65
2024/02/08 03:28:46;0.00;0.00;0.62;0.00;0.00;0.62;3.20;2.57;;;21.30;25.70;;;;;;2256034;61;20408;-66
2024/02/08 03:31:33;0.00;0.00;0.62;0.00;0.00;0.62;3.40;2.63;;;21.30;25.70;;;;;;2256266;61;20353;-64
2024/02/08 03:34:29;0.00;0.00;0.62;0.00;0.00;0.62;4.13;2.90;;;21.30;25.70;;;;;;2255920;61;20504;-66
2024/02/08 03:37:14;0.00;0.00;0.62;0.00;0.00;0.62;3.80;3.20;;;21.20;25.60;;;;;;2517383;53;20386;-64
2024/02/08 03:39:59;0.00;0.00;0.62;0.00;0.00;0.62;3.20;2.30;;;21.20;25.60;;;;;;2256414;61;20389;-65
2024/02/08 03:42:44;0.00;0.00;0.62;0.00;0.00;0.62;4.23;2.90;;;21.20;25.60;;;;;;2255815;61;20432;-66
2024/02/08 03:45:31;0.00;0.00;0.62;0.00;0.00;0.62;3.63;2.53;;;21.20;25.60;;;;;;2256086;61;20382;-66
2024/02/08 03:48:15;0.00;0.00;0.62;0.00;0.00;0.62;4.50;2.67;;;21.20;25.60;;;;;;2256310;61;20424;-66
2024/02/08 03:51:00;0.00;0.00;0.62;0.00;0.00;0.62;3.40;2.60;;;21.20;25.60;;;;;;2255963;61;20370;-65
2024/02/08 03:53:45;0.00;0.00;0.62;0.00;0.00;0.62;2.93;2.20;;;21.20;25.60;;;;;;2255917;61;20378;-64
2024/02/08 03:56:36;0.00;0.00;0.62;0.00;0.00;0.62;4.00;2.83;;;21.20;25.60;;;;;;2256445;61;20843;-65
2024/02/08 03:59:28;0.00;0.00;0.62;0.00;0.00;0.62;3.67;2.43;;;21.20;25.70;;;;;;2608964;45;20366;-66
2024/02/08 04:02:14;0.00;0.00;0.62;0.00;0.00;0.62;3.67;2.43;;;21.20;25.60;;;;;;2256706;61;20403;-65
2024/02/08 04:05:05;0.00;0.00;0.62;0.00;0.00;0.62;4.00;2.40;;;21.20;25.60;;;;;;2253477;61;20771;-65
2024/02/08 04:07:57;0.00;0.00;0.62;0.00;0.00;0.62;3.83;2.83;;;21.20;25.60;;;;;;2260366;61;20368;-66
2024/02/08 04:53:36;0.00;0.00;0.62;0.00;0.00;0.62;3.83;2.50;;;21.10;25.60;;;;;;2260661;61;20433;-65
2024/02/08 04:56:21;0.00;0.00;0.62;0.00;0.00;0.62;2.93;2.27;;;21.10;25.70;;;;;;2260325;61;20470;-63
2024/02/08 04:59:06;0.00;0.00;0.62;0.00;0.00;0.62;3.90;1.93;;;21.10;25.70;;;;;;2260831;61;20368;-65
2024/02/08 05:01:53;0.00;0.00;0.62;0.00;0.00;0.62;3.00;2.20;;;21.10;25.70;;;;;;2261024;61;20368;-66
2024/02/08 05:04:37;0.00;0.00;0.62;0.00;0.00;0.62;2.67;1.87;;;21.10;25.70;;;;;;2260255;61;20414;-64
2024/02/08 05:07:26;0.00;0.00;0.62;0.00;0.00;0.62;3.20;2.50;;;21.10;25.60;;;;;;2260852;61;20372;-65
2024/02/08 05:10:11;0.00;0.00;0.62;0.00;0.00;0.62;3.00;2.40;;;21.10;25.70;;;;;;2257539;61;20368;-66
2024/02/08 05:12:56;0.00;0.00;0.62;0.00;0.00;0.62;2.77;2.07;;;21.10;25.60;;;;;;2256881;61;20405;-65
2024/02/08 05:15:42;0.00;0.00;0.62;0.00;0.00;0.62;2.90;2.00;;;21.10;25.60;;;;;;2256797;61;20382;-64
2024/02/08 05:18:28;0.00;0.00;0.62;0.00;0.00;0.62;2.30;1.90;;;21.00;25.50;;;;;;2256952;61;20683;-65
2024/02/08 05:21:16;0.00;0.00;0.62;0.00;0.00;0.62;2.93;2.10;;;21.10;25.60;;;;;;2260764;61;20675;-63
2024/02/08 05:24:03;0.00;0.00;0.62;0.00;0.00;0.62;3.53;2.00;;;21.10;25.60;;;;;;2260467;61;20488;-65
2024/02/08 05:26:47;0.00;0.00;0.62;0.00;0.00;0.62;2.97;2.20;;;21.00;25.50;;;;;;2258248;61;20393;-65
2024/02/08 05:29:33;0.00;0.00;0.62;0.00;0.00;0.62;2.90;2.13;;;21.10;26.10;;;;;;2256764;61;20378;-64
2024/02/08 05:32:22;0.00;0.00;0.62;0.00;0.00;0.62;3.17;2.20;;;21.00;25.50;;;;;;2256767;61;20420;-63
2024/02/08 05:35:13;0.00;0.00;0.62;0.00;0.00;0.62;2.93;2.20;;;21.00;25.50;;;;;;2256333;61;20959;-64
2024/02/08 05:37:57;0.00;0.00;0.62;0.00;0.00;0.62;4.03;2.53;;;21.00;25.50;;;;;;2256784;61;20365;-65
2024/02/08 05:40:43;0.00;0.00;0.62;0.00;0.00;0.62;3.53;2.37;;;21.00;25.50;;;;;;2256920;61;20358;-65
2024/02/08 05:43:28;0.00;0.00;0.62;0.00;0.00;0.62;2.97;2.40;;;21.00;25.50;;;;;;2260528;61;20432;-65
2024/02/08 05:46:27;0.00;0.00;0.62;0.00;0.00;0.62;4.47;2.67;;;21.00;25.50;;;;;;2260828;61;20396;-65
2024/02/08 05:49:13;0.00;0.00;0.62;0.00;0.00;0.62;3.20;2.43;;;21.10;25.60;;;;;;2257873;61;20417;-64
2024/02/08 05:52:05;0.00;0.00;0.62;0.00;0.00;0.62;8.20;3.30;;;21.00;25.50;;;;;;2256592;61;20428;-64
2024/02/08 05:54:52;0.00;0.00;0.62;0.00;0.00;0.62;3.50;2.33;;;21.00;25.50;;;;;;2256571;61;20339;-65
2024/02/08 05:57:44;0.00;0.00;0.62;0.00;0.00;0.62;5.37;3.10;;;21.00;25.50;;;;;;2260666;61;20473;-65
2024/02/08 06:00:45;0.00;0.00;0.62;0.00;0.00;0.62;4.67;3.00;;;21.00;25.50;;;;;;2260802;61;20365;-65
2024/02/08 06:03:33;0.00;0.00;0.62;0.00;0.00;0.62;4.00;3.10;;;21.00;25.50;;;;;;2259893;61;20461;-64
2024/02/08 06:06:34;0.00;0.00;0.62;0.00;0.00;0.62;4.60;3.00;;;21.00;25.50;;;;;;2260501;61;20376;-64
2024/02/08 06:09:47;0.00;0.00;0.62;0.00;0.00;0.62;3.47;2.77;;;21.00;25.50;;;;;;2257534;61;20419;-65
2024/02/08 06:12:46;0.00;0.00;0.62;0.00;0.00;0.62;3.20;2.50;;;21.00;25.50;;;;;;2775663;45;20343;-65
2024/02/08 06:15:35;0.00;0.00;0.62;0.00;0.00;0.62;5.20;3.53;;;21.00;25.50;;;;;;2256585;61;20852;-63
2024/02/08 06:18:25;0.00;0.00;0.62;0.00;0.00;0.62;6.60;3.67;;;21.00;25.60;;;;;;2257778;61;20389;-65
2024/02/08 06:21:24;0.00;0.00;0.62;0.00;0.00;0.62;3.87;3.10;;;20.90;25.50;;;;;;2260639;61;20424;-64
2024/02/08 06:24:56;0.00;0.00;0.62;0.00;0.00;0.62;3.33;2.83;;;20.90;25.50;;;;;;2260436;61;20397;-64
2024/02/08 06:27:25;0.00;0.00;0.62;0.00;0.00;0.62;5.13;3.30;;;21.00;25.50;;;;;;2256371;58;20498;-64
2024/02/08 06:30:18;0.00;0.00;0.62;0.00;0.00;0.62;5.20;3.80;;;20.90;25.50;;;;;;2253526;61;20365;-64
2024/02/08 06:33:07;0.00;0.00;0.62;0.00;0.00;0.62;3.20;2.90;;;21.00;25.60;;;;;;2256314;61;20382;-65
2024/02/08 06:35:56;0.00;0.00;0.62;0.00;0.00;0.62;3.67;2.83;;;20.90;25.50;;;;;;2256477;61;20386;-65
2024/02/08 06:38:43;0.00;0.00;0.62;0.00;0.00;0.62;4.93;3.57;;;20.90;25.50;;;;;;2256472;61;20350;-65
2024/02/08 06:47:54;0.00;0.00;0.62;0.00;0.00;0.62;4.53;2.97;;;21.00;25.60;;;;;;2256929;61;20413;-64
2024/02/08 07:39:46;0.00;0.00;0.62;0.00;0.00;0.62;10.10;4.53;;;20.80;25.50;;;;;;2257663;61;20397;-63
2024/02/08 07:42:41;0.00;0.00;0.62;0.00;0.00;0.62;5.13;4.07;;;20.80;25.50;;;;;;2260406;61;20420;-65
2024/02/08 07:45:27;0.00;0.00;0.62;0.00;0.00;0.62;6.80;5.30;;;20.80;25.50;;;;;;2260550;61;20373;-65
2024/02/08 07:48:37;0.00;0.00;0.62;0.00;0.00;0.62;5.97;4.50;;;20.80;25.50;;;;;;2256878;61;20373;-65
2024/02/08 07:51:23;0.00;0.00;0.62;0.00;0.00;0.62;6.07;4.67;;;20.80;25.50;;;;;;2256708;61;20412;-65
2024/02/08 07:54:20;0.00;0.00;0.62;0.00;0.00;0.62;6.87;4.80;;;20.80;25.50;;;;;;2255984;61;20393;-65
2024/02/08 07:57:05;0.00;0.00;0.62;0.00;0.00;0.62;7.07;5.00;;;20.90;25.50;;;;;;2256733;61;20398;-65
2024/02/08 07:59:52;0.00;0.00;0.62;0.00;0.00;0.62;8.90;5.07;;;20.80;25.50;;;;;;2256772;61;20362;-64
2024/02/08 08:02:36;0.00;0.00;0.62;0.00;0.00;0.62;6.33;5.30;;;20.80;25.50;;;;;;2256214;61;20464;-65
2024/02/08 08:05:23;0.00;0.00;0.62;0.00;0.00;0.62;7.03;5.10;;;20.90;25.50;;;;;;2256502;61;20803;-64
2024/02/08 08:08:15;0.00;0.00;0.62;0.00;0.00;0.62;6.40;4.50;;;20.80;25.50;;;;;;2253923;61;20369;-65
2024/02/08 08:11:05;0.00;0.00;0.62;0.00;0.00;0.62;7.60;5.60;;;20.90;25.50;;;;;;2776517;45;20385;-65
2024/02/08 08:13:50;0.00;0.00;0.62;0.00;0.00;0.62;8.47;4.90;;;20.80;25.40;;;;;;2257372;61;20404;-64
2024/02/08 08:19:38;0.00;0.00;0.62;0.00;0.00;0.62;7.83;4.97;;;20.90;26.00;;;;;;2257309;61;20350;-64
2024/02/08 08:28:10;0.00;0.00;0.62;0.00;0.00;0.62;7.83;5.27;;;20.80;25.40;;;;;;2257158;61;20358;-65
2024/02/08 08:31:00;0.00;0.00;0.62;0.00;0.00;0.62;6.83;5.27;;;20.90;25.50;;;;;;2257523;61;20402;-64
2024/02/08 08:34:00;0.00;0.00;0.62;0.00;0.00;0.62;8.23;5.80;;;20.80;25.40;;;;;;2261101;61;20942;-63
2024/02/08 08:36:57;0.00;0.00;0.62;0.00;0.00;0.62;7.50;5.73;;;20.80;25.40;;;;;;2261403;61;20814;-64
2024/02/08 08:40:00;0.00;0.00;0.62;0.00;0.00;0.62;8.30;5.87;;;20.80;25.40;;;;;;2257462;61;20381;-65
2024/02/08 08:42:49;0.00;0.00;0.62;0.00;0.00;0.62;7.20;5.73;;;20.80;25.40;;;;;;2260733;61;20402;-64
2024/02/08 08:45:40;0.00;0.00;0.62;0.00;0.00;0.62;9.43;6.73;;;20.80;25.40;;;;;;2257264;61;20465;-65
2024/02/08 08:48:30;0.00;0.00;0.62;0.00;0.00;0.62;7.37;6.07;;;20.80;25.40;;;;;;2257949;61;20395;-66
2024/02/08 08:51:18;0.00;0.00;0.62;0.00;0.00;0.62;8.27;6.30;;;20.80;25.40;;;;;;2261252;61;20366;-64
2024/02/08 08:54:14;0.00;0.00;0.62;0.00;0.00;0.62;10.00;6.30;;;20.80;25.40;;;;;;2258517;61;20370;-65
2024/02/08 08:56:59;0.00;0.00;0.62;0.00;0.00;0.62;8.07;6.00;;;20.80;25.40;;;;;;2257020;61;20916;-65
2024/02/08 08:59:43;0.00;0.00;0.62;0.00;0.00;0.62;8.40;5.83;;;20.80;25.40;;;;;;2257310;61;20372;-64
2024/02/08 09:02:29;0.00;0.00;0.62;0.00;0.00;0.62;7.30;5.70;;;20.80;25.40;;;;;;2260639;61;20357;-65
2024/02/08 09:05:17;0.00;0.00;0.62;0.00;0.00;0.62;8.10;5.17;;;20.80;25.40;;;;;;2261235;61;20372;-64
2024/02/08 09:08:09;0.00;0.00;0.62;0.00;0.00;0.62;8.20;6.10;;;20.80;25.40;;;;;;2260756;61;20927;-64
2024/02/08 09:10:56;0.00;0.00;0.62;0.00;0.00;0.62;7.10;5.30;;;20.90;25.40;;;;;;2261413;61;20368;-65
2024/02/08 09:13:51;0.00;0.00;0.62;0.00;0.00;0.62;8.13;5.67;;;20.90;25.50;;;;;;2261440;61;20388;-65
2024/02/08 09:16:52;0.00;0.00;0.62;0.00;0.00;0.62;6.27;5.00;;;20.90;25.50;;;;;;2261009;61;20450;-64
2024/02/08 09:19:38;0.00;0.00;0.62;0.00;0.00;0.62;10.20;5.83;;;20.90;25.50;;;;;;2261245;61;20361;-65
2024/02/08 09:22:22;0.00;0.00;0.62;0.00;0.00;0.62;5.33;4.50;;;20.90;25.50;;;;;;2261398;61;20947;-66
2024/02/08 09:25:10;0.00;0.00;0.62;0.00;0.00;0.62;9.53;5.50;;;20.90;25.50;;;;;;2531123;53;20462;-66
2024/02/08 09:27:55;0.00;0.00;0.62;0.00;0.00;0.62;6.33;5.33;;;20.90;25.50;;;;;;2256786;61;20358;-65
2024/02/08 09:30:48;0.00;0.00;0.62;0.00;0.00;0.62;7.13;4.83;;;20.90;25.40;;;;;;2257114;61;20354;-65
2024/02/08 09:33:44;0.00;0.00;0.62;0.00;0.00;0.62;6.10;4.40;;;20.90;25.40;;;;;;2257031;61;20453;-65
2024/02/08 09:36:32;0.00;0.00;0.62;0.00;0.00;0.62;7.33;5.47;;;20.90;25.40;;;;;;2257056;61;20428;-66
2024/02/08 09:39:16;0.00;0.00;0.62;0.00;0.00;0.62;5.60;4.33;;;20.90;25.40;;;;;;2256884;61;20831;-64
2024/02/08 09:42:07;0.00;0.00;0.62;0.00;0.00;0.62;5.90;4.80;;;20.90;25.40;;;;;;2253855;61;20450;-64
2024/02/08 09:44:56;0.00;0.00;0.62;0.00;0.00;0.62;6.33;5.00;;;20.90;25.40;;;;;;2253236;61;20440;-66
2024/02/08 09:47:51;0.00;0.00;0.62;0.00;0.00;0.62;6.27;5.10;;;20.90;25.40;;;;;;2254024;61;20408;-66
2024/02/08 09:50:36;0.00;0.00;0.62;0.00;0.00;0.62;6.50;5.03;;;20.90;25.40;;;;;;2257793;61;20405;-64
2024/02/08 09:53:27;0.00;0.00;0.62;0.00;0.00;0.62;6.13;4.87;;;20.90;25.40;;;;;;2259208;61;20368;-66
2024/02/08 09:56:25;0.00;0.00;0.62;0.00;0.00;0.62;5.80;5.23;;;20.90;25.40;;;;;;2261322;61;20388;-66
2024/02/08 09:59:18;0.00;0.00;0.62;0.00;0.00;0.62;6.93;5.30;;;20.90;25.40;;;;;;2261044;61;20360;-66
2024/02/08 10:02:04;0.00;0.00;0.62;0.00;0.00;0.62;6.63;5.10;;;20.90;25.40;;;;;;2585984;45;20360;-66
2024/02/08 10:04:56;0.00;0.00;0.62;0.00;0.00;0.62;5.80;5.00;;;20.90;25.40;;;;;;2260909;61;20807;-67
2024/02/08 10:07:49;0.00;0.00;0.62;0.00;0.00;0.62;5.63;4.03;;;20.90;25.40;;;;;;2260928;61;20432;-65
2024/02/08 10:10:43;0.00;0.00;0.62;0.00;0.00;0.62;5.90;4.90;;;21.00;25.50;;;;;;2261266;61;20350;-65
2024/02/08 10:13:51;0.00;0.00;0.62;0.00;0.00;0.62;5.93;5.30;;;20.90;25.40;;;;;;2261274;61;20369;-65
2024/02/08 10:16:42;0.00;0.00;0.62;0.00;0.00;0.62;6.33;5.27;;;21.00;25.50;;;;;;2257266;61;20388;-66
2024/02/08 10:22:17;0.00;0.00;0.62;0.00;0.00;0.62;6.07;5.10;;;20.90;25.40;;;;;;2257202;61;20365;-66
2024/02/08 10:28:09;0.00;0.00;0.62;0.00;0.00;0.62;7.40;6.13;;;21.00;25.40;;;;;;2260743;61;20399;-66
2024/02/08 10:30:59;0.00;0.00;0.62;0.00;0.00;0.62;9.00;6.20;;;21.00;25.40;;;;;;2257069;61;20374;-65
2024/02/08 10:33:48;0.00;0.00;0.62;0.00;0.00;0.62;8.10;6.50;;;21.00;25.40;;;;;;2256134;61;20358;-66
2024/02/08 10:36:35;0.00;0.00;0.62;0.00;0.00;0.62;7.80;6.53;;;21.00;25.40;;;;;;2256266;61;20378;-66
2024/02/08 10:39:26;0.00;0.00;0.62;0.00;0.00;0.62;8.53;7.00;;;21.00;25.40;;;;;;2256422;61;20770;-66
2024/02/08 10:42:14;0.00;0.00;0.62;0.00;0.00;0.62;10.70;8.30;;;21.00;25.40;;;;;;2256757;61;20365;-67
2024/02/08 10:45:05;0.00;0.00;0.62;0.00;0.00;0.62;9.20;7.67;;;21.00;25.40;;;;;;2257728;61;20421;-67
2024/02/08 10:47:52;0.00;0.00;0.62;0.00;0.00;0.62;10.20;7.70;;;21.00;25.40;;;;;;2261748;61;20361;-67
2024/02/08 10:50:41;0.00;0.00;0.62;0.00;0.00;0.62;10.73;8.23;;;21.00;25.40;;;;;;2257949;61;20361;-65
2024/02/08 10:53:43;0.00;0.00;0.62;0.00;0.00;0.62;10.00;7.70;;;21.10;25.50;;;;;;2256947;61;20472;-68
2024/02/08 10:56:40;0.00;0.00;0.62;0.00;0.00;0.62;10.00;8.03;;;21.10;25.50;;;;;;2253645;61;20389;-69
2024/02/08 10:59:59;0.00;0.00;0.62;0.00;0.00;0.62;9.40;7.63;;;21.10;25.40;;;;;;2256567;61;20761;-65
2024/02/08 11:02:48;0.00;0.00;0.62;0.00;0.00;0.62;8.70;7.43;;;21.10;25.50;;;;;;2256603;61;20354;-64
2024/02/08 11:06:00;0.00;0.00;0.62;0.00;0.00;0.62;10.17;8.23;;;21.10;25.40;;;;;;2256960;61;20463;-65
2024/02/08 11:09:03;0.00;0.00;0.62;0.00;0.00;0.62;8.57;7.00;;;21.10;25.40;;;;;;2253433;61;20410;-64
2024/02/08 11:11:59;0.00;0.00;0.62;0.00;0.00;0.62;8.53;6.77;;;21.20;25.50;;;;;;2256802;61;20353;-65
2024/02/08 11:14:53;0.00;0.00;0.62;0.00;0.00;0.62;8.90;6.87;;;21.10;25.40;;;;;;2256007;61;20452;-66
2024/02/08 11:17:49;0.00;0.00;0.62;0.00;0.00;0.62;9.37;6.73;;;21.10;25.40;;;;;;2256713;61;20457;-65
2024/02/08 11:20:43;0.00;0.00;0.62;0.00;0.00;0.62;8.70;7.10;;;21.10;25.40;;;;;;2256525;61;20374;-65
2024/02/08 11:23:31;0.00;0.00;0.62;0.00;0.00;0.62;8.90;6.60;;;21.20;25.40;;;;;;2568095;45;20449;-65
2024/02/08 11:26:18;0.00;0.00;0.62;0.00;0.00;0.62;8.10;5.97;;;21.20;25.40;;;;;;2256334;61;20448;-66
2024/02/08 11:29:05;0.00;0.00;0.62;0.00;0.00;0.62;8.57;6.70;;;21.20;25.40;;;;;;2257019;61;20377;-65
2024/02/08 11:31:49;0.00;0.00;0.62;0.00;0.00;0.62;7.53;6.17;;;21.20;25.40;;;;;;2260875;61;20928;-66
2024/02/08 11:34:44;0.00;0.00;0.62;0.00;0.00;0.62;7.70;6.57;;;21.20;25.30;;;;;;2257236;61;20345;-65
2024/02/08 11:37:30;0.00;0.00;0.62;0.00;0.00;0.62;7.67;6.50;;;21.20;25.30;;;;;;2253656;61;20413;-66
2024/02/08 11:40:28;0.00;0.00;0.62;0.00;0.00;0.62;8.27;7.00;;;21.20;25.30;;;;;;2256531;61;20399;-66
2024/02/08 11:43:23;0.00;0.00;0.62;0.00;0.00;0.62;8.20;6.50;;;21.20;25.30;;;;;;2255962;61;21043;-66
2024/02/08 11:46:18;0.00;0.00;0.62;0.00;0.00;0.62;7.93;6.90;;;21.20;25.30;;;;;;2260393;61;20416;-65
2024/02/08 11:49:14;0.00;0.00;0.62;0.00;0.00;0.62;7.80;6.83;;;21.20;25.20;;;;;;2257358;61;20365;-66
2024/02/08 11:52:11;0.00;0.00;0.62;0.00;0.00;0.62;8.90;5.77;;;21.30;25.30;;;;;;2259918;61;20365;-65
2024/02/08 11:55:05;0.00;0.00;0.62;0.00;0.00;0.62;8.30;6.90;;;21.20;25.20;;;;;;2260240;61;20415;-66
2024/02/08 11:57:53;0.00;0.00;0.62;0.00;0.00;0.62;7.87;6.13;;;21.30;25.30;;;;;;2256788;61;20388;-65
2024/02/08 12:00:48;0.00;0.00;0.62;0.00;0.00;0.62;7.60;6.50;;;21.20;25.20;;;;;;2256598;61;20385;-65
2024/02/08 12:03:41;0.00;0.00;0.62;0.00;0.00;0.62;6.93;5.87;;;21.20;25.20;;;;;;2256199;61;20492;-66
2024/02/08 12:06:33;0.00;0.00;0.62;0.00;0.00;0.62;6.90;6.20;;;21.20;25.30;;;;;;2256000;61;20944;-65
2024/02/08 12:09:22;0.00;0.00;0.62;0.00;0.00;0.62;7.83;5.97;;;21.20;25.20;;;;;;2253250;61;20413;-64
2024/02/08 12:12:14;0.00;0.00;0.62;0.00;0.00;0.62;10.27;7.00;;;21.20;25.20;;;;;;2256582;61;20480;-65
2024/02/08 12:15:01;0.00;0.00;0.62;0.00;0.00;0.62;6.40;5.80;;;21.30;25.30;;;;;;2259979;61;20392;-65
2024/02/08 12:17:48;0.00;0.00;0.62;0.00;0.00;0.62;6.83;5.60;;;21.20;25.20;;;;;;2260545;61;20459;-68
2024/02/08 12:20:36;0.00;0.00;0.62;0.00;0.00;0.62;7.50;5.57;;;21.20;25.20;;;;;;2259183;61;20432;-65
2024/02/08 12:23:23;0.00;0.00;0.62;0.00;0.00;0.62;10.43;5.50;;;21.20;25.20;;;;;;2257066;61;20412;-66
2024/02/08 12:26:12;0.00;0.00;0.62;0.00;0.00;0.62;7.83;5.90;;;21.20;25.20;;;;;;2257040;61;20397;-65
2024/02/08 12:28:57;0.00;0.00;0.62;0.00;0.00;0.62;9.47;6.93;;;21.20;25.20;;;;;;2259476;61;20400;-64
2024/02/08 12:31:45;0.00;0.00;0.62;0.00;0.00;0.62;6.23;5.63;;;21.20;25.20;;;;;;2261215;61;20369;-64
2024/02/08 12:34:34;0.00;0.00;0.62;0.00;0.00;0.62;10.30;6.30;;;21.20;25.20;;;;;;2261728;61;20348;-65
2024/02/08 12:37:22;0.00;0.00;0.62;0.00;0.00;0.62;7.17;5.77;;;21.20;25.20;;;;;;2724045;45;20388;-66
2024/02/08 12:40:12;0.00;0.00;0.62;0.00;0.00;0.62;6.73;5.97;;;21.30;25.30;;;;;;2262999;61;20384;-66
2024/02/08 12:42:58;0.00;0.00;0.62;0.00;0.00;0.62;7.57;6.43;;;21.20;25.20;;;;;;2261263;61;20354;-65
2024/02/08 12:45:45;0.00;0.00;0.62;0.00;0.00;0.62;7.70;5.73;;;21.20;25.20;;;;;;2259764;61;20805;-66
2024/02/08 12:48:29;0.00;0.00;0.62;0.00;0.00;0.62;7.30;5.47;;;21.20;25.20;;;;;;2260058;61;20405;-64
2024/02/08 12:51:18;0.00;0.00;0.62;0.00;0.00;0.62;5.83;5.20;;;21.30;25.30;;;;;;2259709;61;20374;-66
2024/02/08 12:54:04;0.00;0.00;0.62;0.00;0.00;0.62;6.83;5.30;;;21.20;25.20;;;;;;2256650;61;20449;-67
2024/02/08 12:56:50;0.00;0.00;0.62;0.00;0.00;0.62;7.10;5.23;;;21.20;25.20;;;;;;2259491;61;20933;-66
2024/02/08 12:59:40;0.00;0.00;0.62;0.00;0.00;0.62;7.57;6.07;;;21.20;25.20;;;;;;2777154;45;20749;-64